Time;durP1;ratioP1;P1;durP2;ratioP2;P2;SDS_P1;SDS_P2;PMS_P1;PMS_P2;Temp;Humidity;BMP_temperature;BMP_pressure;BME280_temperature;BME280_humidity;BME280_pressure;Samples;Min_cycle;Max_cycle;Signal;HPM_P1;HPM_P2
2022/03/05 00:02:03;;;;;;;17.95;10.02;;;;;;;;;;4955007;29;20110;-68
2022/03/05 00:04:30;;;;;;;18.70;10.35;;;;;;;;;;4948065;28;20078;-68
2022/03/05 00:06:57;;;;;;;18.08;10.15;;;;;;;;;;4935824;29;20098;-68
2022/03/05 00:09:27;;;;;;;16.60;10.18;;;;;;;;;;4935872;29;20130;-68
2022/03/05 00:11:54;;;;;;;20.15;9.32;;;;;;;;;;4935934;29;20051;-68
2022/03/05 00:14:20;;;;;;;15.13;9.77;;;;;;;;;;4940941;29;20055;-68
2022/03/05 00:16:47;;;;;;;17.10;9.20;;;;;;;;;;4954901;28;20110;-68
2022/03/05 00:19:13;;;;;;;15.40;9.88;;;;;;;;;;4955069;28;20493;-68
2022/03/05 00:21:40;;;;;;;15.55;9.75;;;;;;;;;;4954437;29;20111;-68
2022/03/05 00:24:07;;;;;;;15.02;9.85;;;;;;;;;;4951481;29;20043;-68
2022/03/05 00:26:33;;;;;;;16.65;9.95;;;;;;;;;;4935501;29;20111;-68
2022/03/05 00:29:00;;;;;;;19.10;9.90;;;;;;;;;;4934707;29;20051;-68
2022/03/05 00:31:26;;;;;;;22.58;10.63;;;;;;;;;;4935303;29;20490;-68
2022/03/05 00:33:53;;;;;;;16.52;9.95;;;;;;;;;;4936800;29;20491;-68
2022/03/05 00:36:19;;;;;;;17.27;10.35;;;;;;;;;;4954462;28;20118;-67
2022/03/05 00:38:46;;;;;;;19.73;9.70;;;;;;;;;;4954756;28;20429;-68
2022/03/05 00:41:13;;;;;;;20.05;9.95;;;;;;;;;;4954517;29;20105;-68
2022/03/05 00:43:39;;;;;;;20.55;9.55;;;;;;;;;;4954303;28;20099;-67
2022/03/05 00:46:06;;;;;;;16.58;9.77;;;;;;;;;;4935687;28;20052;-68
2022/03/05 00:48:32;;;;;;;22.63;10.45;;;;;;;;;;4935218;29;20087;-67
2022/03/05 00:50:59;;;;;;;18.50;10.00;;;;;;;;;;4934894;29;20138;-67
2022/03/05 00:53:25;;;;;;;17.77;9.95;;;;;;;;;;4935324;29;20052;-68
2022/03/05 00:55:52;;;;;;;18.38;9.85;;;;;;;;;;4951242;29;20050;-68
2022/03/05 00:58:19;;;;;;;16.58;10.13;;;;;;;;;;4954248;28;20126;-67
2022/03/05 01:00:46;;;;;;;17.23;10.25;;;;;;;;;;4954131;29;20470;-68
2022/03/05 01:03:13;;;;;;;19.25;10.75;;;;;;;;;;4953991;28;20051;-68
2022/03/05 01:05:39;;;;;;;15.63;9.75;;;;;;;;;;4940314;28;20067;-68
2022/03/05 01:08:06;;;;;;;18.90;10.43;;;;;;;;;;4934823;29;20099;-68
2022/03/05 01:10:33;;;;;;;18.50;10.95;;;;;;;;;;4934257;29;20056;-67
2022/03/05 01:12:59;;;;;;;19.95;11.10;;;;;;;;;;4934795;29;20051;-68
2022/03/05 01:15:26;;;;;;;18.60;10.38;;;;;;;;;;4946647;29;20051;-68
2022/03/05 01:17:53;;;;;;;16.27;10.30;;;;;;;;;;4953735;29;20573;-68
2022/03/05 01:20:19;;;;;;;19.13;10.75;;;;;;;;;;4953901;28;20106;-68
2022/03/05 01:22:46;;;;;;;17.73;9.82;;;;;;;;;;4953721;28;20083;-67
2022/03/05 01:25:12;;;;;;;17.63;9.85;;;;;;;;;;4953938;29;20055;-68
2022/03/05 01:27:39;;;;;;;19.38;11.35;;;;;;;;;;4939683;29;20119;-68
2022/03/05 01:30:06;;;;;;;19.35;10.63;;;;;;;;;;4934317;29;20107;-68
2022/03/05 01:32:32;;;;;;;17.27;10.55;;;;;;;;;;4934417;29;20498;-67
2022/03/05 01:34:59;;;;;;;18.58;9.70;;;;;;;;;;4941993;29;20395;-68
2022/03/05 01:37:26;;;;;;;15.90;9.05;;;;;;;;;;4953782;29;20051;-68
2022/03/05 01:39:52;;;;;;;17.77;10.40;;;;;;;;;;4956272;28;20051;-68
2022/03/05 01:42:23;;;;;;;18.60;9.68;;;;;;;;;;4960071;28;20101;-68
2022/03/05 01:44:50;;;;;;;17.63;10.57;;;;;;;;;;4953241;28;20099;-68
2022/03/05 01:47:17;;;;;;;21.38;10.73;;;;;;;;;;4958240;29;20051;-68
2022/03/05 01:49:43;;;;;;;18.50;10.45;;;;;;;;;;4959760;28;20051;-67
2022/03/05 01:52:11;;;;;;;20.27;10.35;;;;;;;;;;4960117;28;20105;-68
2022/03/05 01:54:38;;;;;;;14.32;9.23;;;;;;;;;;4955042;28;20051;-68
2022/03/05 01:57:06;;;;;;;18.60;10.18;;;;;;;;;;4939555;29;20139;-68
2022/03/05 01:59:33;;;;;;;17.85;9.68;;;;;;;;;;4940358;29;20055;-68
2022/03/05 02:02:00;;;;;;;14.48;8.93;;;;;;;;;;4940749;29;20418;-69
2022/03/05 02:04:27;;;;;;;19.85;10.93;;;;;;;;;;4940997;29;20055;-69
2022/03/05 02:06:54;;;;;;;16.80;10.10;;;;;;;;;;4941065;29;20051;-68
2022/03/05 02:09:20;;;;;;;17.88;9.27;;;;;;;;;;4940647;29;20471;-69
2022/03/05 02:11:47;;;;;;;16.55;9.95;;;;;;;;;;4940581;29;20052;-68
2022/03/05 02:14:18;;;;;;;16.60;9.85;;;;;;;;;;4941291;29;20103;-69
2022/03/05 02:16:46;;;;;;;16.58;9.38;;;;;;;;;;4959839;28;20051;-68
2022/03/05 02:19:12;;;;;;;17.30;10.45;;;;;;;;;;4960017;28;20055;-69
2022/03/05 02:21:39;;;;;;;17.80;10.45;;;;;;;;;;4959359;28;20469;-69
2022/03/05 02:24:05;;;;;;;16.63;9.77;;;;;;;;;;4959694;28;20047;-69
2022/03/05 02:26:32;;;;;;;17.40;9.68;;;;;;;;;;4959362;28;20502;-69
2022/03/05 02:28:59;;;;;;;24.48;9.30;;;;;;;;;;4960425;29;20055;-69
2022/03/05 02:31:25;;;;;;;16.08;8.82;;;;;;;;;;4959500;29;20051;-68
2022/03/05 02:33:52;;;;;;;17.50;9.73;;;;;;;;;;4959755;28;20403;-68
2022/03/05 02:36:23;;;;;;;18.02;9.27;;;;;;;;;;4945043;28;20055;-69
2022/03/05 02:38:50;;;;;;;19.27;9.82;;;;;;;;;;4940406;29;20498;-69
2022/03/05 02:41:18;;;;;;;16.30;9.13;;;;;;;;;;4940042;29;20103;-67
2022/03/05 02:43:46;;;;;;;15.25;8.95;;;;;;;;;;4940393;29;20505;-68
2022/03/05 02:46:12;;;;;;;16.10;9.02;;;;;;;;;;4940456;29;20048;-68
2022/03/05 02:48:39;;;;;;;15.20;8.82;;;;;;;;;;4940493;29;20466;-68
2022/03/05 02:51:06;;;;;;;16.60;9.25;;;;;;;;;;4937989;29;20052;-67
2022/03/05 02:53:32;;;;;;;15.98;8.93;;;;;;;;;;4937358;29;20060;-67
2022/03/05 02:55:59;;;;;;;13.60;8.18;;;;;;;;;;4935961;29;20064;-66
2022/03/05 02:58:25;;;;;;;17.20;10.27;;;;;;;;;;4937572;29;20102;-67
2022/03/05 03:00:52;;;;;;;18.02;8.88;;;;;;;;;;4937222;29;20107;-67
2022/03/05 03:03:19;;;;;;;16.48;8.85;;;;;;;;;;4937042;29;20062;-67
2022/03/05 03:05:46;;;;;;;17.70;9.38;;;;;;;;;;4946417;29;20497;-66
2022/03/05 03:08:12;;;;;;;18.15;9.52;;;;;;;;;;4956368;28;20055;-66
2022/03/05 03:10:39;;;;;;;14.80;8.45;;;;;;;;;;4955904;29;20051;-66
2022/03/05 03:13:06;;;;;;;16.75;9.43;;;;;;;;;;4956456;28;20098;-67
2022/03/05 03:15:33;;;;;;;16.92;9.73;;;;;;;;;;4956395;28;20122;-67
2022/03/05 03:17:59;;;;;;;17.63;9.50;;;;;;;;;;4956441;28;20129;-67
2022/03/05 03:20:26;;;;;;;17.38;9.05;;;;;;;;;;4955863;28;20445;-66
2022/03/05 03:22:53;;;;;;;18.30;9.85;;;;;;;;;;4955756;28;20502;-67
2022/03/05 03:25:20;;;;;;;17.80;9.23;;;;;;;;;;4950082;28;20573;-68
2022/03/05 03:27:47;;;;;;;17.13;8.85;;;;;;;;;;4936871;29;20047;-67
2022/03/05 03:30:14;;;;;;;15.25;8.43;;;;;;;;;;4936547;29;20051;-66
2022/03/05 03:32:41;;;;;;;17.40;9.45;;;;;;;;;;4936755;29;20055;-67
2022/03/05 03:35:09;;;;;;;16.33;8.70;;;;;;;;;;4939763;29;20560;-66
2022/03/05 03:37:35;;;;;;;19.08;9.98;;;;;;;;;;4956039;28;20069;-67
2022/03/05 03:40:04;;;;;;;17.48;9.80;;;;;;;;;;4955664;28;20051;-66
2022/03/05 03:42:31;;;;;;;16.83;10.07;;;;;;;;;;4955605;28;20099;-68
2022/03/05 03:44:57;;;;;;;22.33;9.88;;;;;;;;;;4955161;28;20160;-67
2022/03/05 03:47:24;;;;;;;17.38;9.95;;;;;;;;;;4955639;29;20051;-67
2022/03/05 03:49:50;;;;;;;17.40;10.05;;;;;;;;;;4955143;28;20171;-67
2022/03/05 03:52:17;;;;;;;18.27;9.60;;;;;;;;;;4955400;29;20732;-67
2022/03/05 03:54:45;;;;;;;15.10;8.35;;;;;;;;;;4955618;28;20051;-67
2022/03/05 03:57:12;;;;;;;17.83;10.10;;;;;;;;;;4955550;28;20059;-67
2022/03/05 03:59:38;;;;;;;15.43;8.70;;;;;;;;;;4955102;28;20111;-67
2022/03/05 04:02:05;;;;;;;15.73;9.27;;;;;;;;;;4955016;28;20134;-68
2022/03/05 04:04:32;;;;;;;18.50;9.93;;;;;;;;;;4955113;28;20054;-66
2022/03/05 04:09:44;;;;;;;18.08;9.32;;;;;;;;;;4955022;29;20051;-66
2022/03/05 04:12:11;;;;;;;17.00;9.98;;;;;;;;;;4955168;29;20569;-66
2022/03/05 04:14:40;;;;;;;16.55;9.85;;;;;;;;;;4955003;28;20558;-68
2022/03/05 04:17:07;;;;;;;15.07;9.20;;;;;;;;;;4936603;28;20061;-67
2022/03/05 04:19:34;;;;;;;18.45;9.25;;;;;;;;;;4935587;29;20056;-67
2022/03/05 04:22:01;;;;;;;16.83;9.80;;;;;;;;;;4935730;29;20119;-67
2022/03/05 04:24:28;;;;;;;16.02;9.50;;;;;;;;;;4935651;29;20467;-67
2022/03/05 04:26:54;;;;;;;19.08;10.15;;;;;;;;;;4952396;29;20059;-67
2022/03/05 04:29:21;;;;;;;16.75;8.80;;;;;;;;;;4954548;28;20055;-66
2022/03/05 04:31:48;;;;;;;19.23;10.65;;;;;;;;;;4954427;29;20502;-68
2022/03/05 04:34:15;;;;;;;17.38;9.65;;;;;;;;;;4954800;29;20058;-67
2022/03/05 04:36:41;;;;;;;17.52;9.05;;;;;;;;;;4954647;28;20075;-67
2022/03/05 04:39:08;;;;;;;17.40;9.77;;;;;;;;;;4954683;29;20469;-67
2022/03/05 04:41:34;;;;;;;17.70;10.40;;;;;;;;;;4954166;28;20051;-68
2022/03/05 04:44:01;;;;;;;19.20;10.15;;;;;;;;;;4954531;28;20115;-68
2022/03/05 04:46:28;;;;;;;17.05;9.18;;;;;;;;;;4954299;28;20062;-68
2022/03/05 04:48:55;;;;;;;18.95;9.93;;;;;;;;;;4954589;29;20054;-67
2022/03/05 04:51:21;;;;;;;20.05;9.50;;;;;;;;;;4954042;28;20047;-67
2022/03/05 04:53:48;;;;;;;15.95;9.05;;;;;;;;;;4954497;29;20047;-68
2022/03/05 04:56:15;;;;;;;16.52;9.27;;;;;;;;;;4955025;28;20051;-68
2022/03/05 04:58:42;;;;;;;15.38;9.38;;;;;;;;;;4954372;28;20469;-67
2022/03/05 05:01:08;;;;;;;17.33;9.30;;;;;;;;;;4954186;28;20134;-68
2022/03/05 05:03:35;;;;;;;17.70;9.60;;;;;;;;;;4954045;28;20047;-67
2022/03/05 05:06:02;;;;;;;17.48;10.07;;;;;;;;;;4949061;28;20502;-67
2022/03/05 05:08:29;;;;;;;16.38;9.30;;;;;;;;;;4954248;29;20054;-68
2022/03/05 05:11:01;;;;;;;21.90;11.18;;;;;;;;;;4952422;29;20052;-66
2022/03/05 05:13:31;;;;;;;19.15;10.00;;;;;;;;;;4954058;28;20526;-67
2022/03/05 05:15:59;;;;;;;16.55;9.45;;;;;;;;;;4947104;29;20563;-66
2022/03/05 05:18:29;;;;;;;19.98;10.05;;;;;;;;;;4945844;29;20055;-66
2022/03/05 05:21:15;;;;;;;18.38;10.00;;;;;;;;;;4944939;29;20047;-67
2022/03/05 05:23:46;;;;;;;18.00;9.70;;;;;;;;;;4942512;29;20047;-67
2022/03/05 05:26:22;;;;;;;16.95;10.20;;;;;;;;;;4943559;29;20095;-67
2022/03/05 05:28:54;;;;;;;20.13;10.15;;;;;;;;;;4944361;28;20054;-67
2022/03/05 05:31:22;;;;;;;19.52;9.95;;;;;;;;;;4942820;29;20131;-67
2022/03/05 05:33:52;;;;;;;20.55;10.18;;;;;;;;;;4937641;29;20058;-66
2022/03/05 05:36:20;;;;;;;20.73;9.85;;;;;;;;;;4947311;29;20048;-66
2022/03/05 05:38:47;;;;;;;22.67;10.38;;;;;;;;;;4953942;29;20118;-66
2022/03/05 05:41:19;;;;;;;17.42;9.70;;;;;;;;;;4943174;29;20122;-66
2022/03/05 05:43:47;;;;;;;19.13;10.50;;;;;;;;;;4937409;29;20059;-66
2022/03/05 05:46:14;;;;;;;19.63;10.50;;;;;;;;;;4934816;29;20062;-67
2022/03/05 05:48:52;;;;;;;22.90;10.88;;;;;;;;;;4935773;29;20525;-66
2022/03/05 05:51:19;;;;;;;17.30;10.25;;;;;;;;;;4950787;28;20160;-67
2022/03/05 05:53:54;;;;;;;20.15;10.10;;;;;;;;;;4953876;29;20054;-66
2022/03/05 05:56:24;;;;;;;17.80;10.30;;;;;;;;;;4953603;28;20059;-67
2022/03/05 05:58:54;;;;;;;18.23;10.13;;;;;;;;;;4952680;28;20086;-67
2022/03/05 06:01:21;;;;;;;23.23;11.48;;;;;;;;;;4941058;28;20056;-68
2022/03/05 06:03:50;;;;;;;19.73;11.05;;;;;;;;;;4934254;29;20052;-66
2022/03/05 06:06:19;;;;;;;21.58;11.70;;;;;;;;;;4934461;29;20062;-67
2022/03/05 06:08:50;;;;;;;17.85;9.93;;;;;;;;;;4934360;29;20052;-67
2022/03/05 06:11:18;;;;;;;19.50;10.57;;;;;;;;;;4934186;29;20051;-67
2022/03/05 06:13:45;;;;;;;22.83;10.32;;;;;;;;;;4934339;29;20048;-66
2022/03/05 06:16:13;;;;;;;18.83;10.38;;;;;;;;;;4934441;29;20415;-66
2022/03/05 06:18:43;;;;;;;19.55;10.90;;;;;;;;;;4945585;29;20086;-68
2022/03/05 06:21:11;;;;;;;19.52;10.00;;;;;;;;;;4953105;28;20110;-67
2022/03/05 06:23:38;;;;;;;19.55;10.60;;;;;;;;;;4953218;28;20105;-67
2022/03/05 06:26:08;;;;;;;19.65;10.25;;;;;;;;;;4953447;28;20458;-66
2022/03/05 06:28:38;;;;;;;16.33;9.85;;;;;;;;;;4946300;28;20474;-67
2022/03/05 06:31:06;;;;;;;17.48;9.57;;;;;;;;;;4937599;29;20477;-66
2022/03/05 06:33:33;;;;;;;18.33;9.85;;;;;;;;;;4937623;29;20466;-68
2022/03/05 06:36:01;;;;;;;25.30;11.00;;;;;;;;;;4937952;29;20522;-66
2022/03/05 06:38:28;;;;;;;21.35;10.75;;;;;;;;;;4937670;29;20056;-66
2022/03/05 06:40:56;;;;;;;19.08;9.73;;;;;;;;;;4937497;29;20056;-67
2022/03/05 06:43:23;;;;;;;22.33;11.40;;;;;;;;;;4937220;29;20580;-67
2022/03/05 06:45:56;;;;;;;18.90;10.50;;;;;;;;;;4938526;29;20510;-69
2022/03/05 06:48:24;;;;;;;19.10;10.60;;;;;;;;;;4956778;28;20126;-67
2022/03/05 06:50:54;;;;;;;18.27;9.75;;;;;;;;;;4956454;28;20521;-67
2022/03/05 06:53:24;;;;;;;20.73;11.38;;;;;;;;;;4956380;28;20102;-67
2022/03/05 06:55:58;;;;;;;21.98;11.60;;;;;;;;;;4956494;28;20081;-68
2022/03/05 06:58:26;;;;;;;16.95;9.75;;;;;;;;;;4942686;29;20079;-66
2022/03/05 07:00:53;;;;;;;19.20;11.40;;;;;;;;;;4936878;29;20056;-66
2022/03/05 07:03:21;;;;;;;18.58;11.18;;;;;;;;;;4937185;29;20062;-67
2022/03/05 07:05:49;;;;;;;19.65;11.68;;;;;;;;;;4935686;29;20489;-65
2022/03/05 07:08:16;;;;;;;21.30;10.55;;;;;;;;;;4934951;29;20087;-66
2022/03/05 07:10:45;;;;;;;20.38;11.80;;;;;;;;;;4935059;29;20119;-66
2022/03/05 07:13:15;;;;;;;20.63;11.23;;;;;;;;;;4935280;29;20052;-66
2022/03/05 07:15:49;;;;;;;21.10;11.80;;;;;;;;;;4937173;29;20051;-66
2022/03/05 07:18:20;;;;;;;26.40;12.32;;;;;;;;;;4954447;28;20059;-66
2022/03/05 07:20:48;;;;;;;22.38;11.13;;;;;;;;;;4953848;28;20062;-65
2022/03/05 07:23:16;;;;;;;22.67;12.35;;;;;;;;;;4954209;28;20061;-65
2022/03/05 07:25:44;;;;;;;20.98;10.73;;;;;;;;;;4949894;28;20043;-66
2022/03/05 07:28:12;;;;;;;22.38;12.02;;;;;;;;;;4934893;29;20501;-66
2022/03/05 07:30:43;;;;;;;20.42;12.20;;;;;;;;;;4934601;29;20047;-66
2022/03/05 07:33:13;;;;;;;21.48;12.32;;;;;;;;;;4933462;29;20181;-66
2022/03/05 07:35:42;;;;;;;22.17;11.63;;;;;;;;;;4934649;29;20051;-66
2022/03/05 07:38:10;;;;;;;22.40;12.20;;;;;;;;;;4937397;29;20057;-65
2022/03/05 07:40:40;;;;;;;23.23;12.60;;;;;;;;;;4953472;28;20059;-66
2022/03/05 07:43:12;;;;;;;26.90;13.55;;;;;;;;;;4953755;28;20063;-67
2022/03/05 07:45:41;;;;;;;23.42;12.70;;;;;;;;;;4952717;29;20051;-66
2022/03/05 07:48:08;;;;;;;23.02;12.93;;;;;;;;;;4953447;29;20106;-66
2022/03/05 07:50:38;;;;;;;25.17;13.45;;;;;;;;;;4953589;28;20051;-67
2022/03/05 07:53:05;;;;;;;25.77;13.15;;;;;;;;;;4953048;28;20055;-66
2022/03/05 07:55:33;;;;;;;22.88;12.40;;;;;;;;;;4939327;28;20848;-66
2022/03/05 07:58:01;;;;;;;28.73;14.05;;;;;;;;;;4941714;29;20050;-67
2022/03/05 08:00:29;;;;;;;23.70;12.45;;;;;;;;;;4952795;29;20433;-65
2022/03/05 08:02:57;;;;;;;22.50;12.57;;;;;;;;;;4953608;28;20051;-66
2022/03/05 08:05:28;;;;;;;23.58;12.20;;;;;;;;;;4947911;28;20056;-66
2022/03/05 08:07:59;;;;;;;25.25;13.55;;;;;;;;;;4934410;29;20055;-67
2022/03/05 08:10:29;;;;;;;21.58;13.35;;;;;;;;;;4933840;29;20058;-65
2022/03/05 08:12:56;;;;;;;25.73;13.32;;;;;;;;;;4933702;29;20556;-65
2022/03/05 08:15:29;;;;;;;31.58;13.15;;;;;;;;;;4938376;29;20050;-67
2022/03/05 08:17:59;;;;;;;27.58;13.02;;;;;;;;;;4953759;28;20483;-66
2022/03/05 08:20:30;;;;;;;26.88;12.75;;;;;;;;;;4952887;28;20058;-66
2022/03/05 08:22:58;;;;;;;22.20;12.50;;;;;;;;;;4952688;28;20055;-66
2022/03/05 08:25:25;;;;;;;21.75;12.15;;;;;;;;;;4945128;28;20062;-65
2022/03/05 08:27:53;;;;;;;20.52;12.32;;;;;;;;;;4933975;29;20071;-66
2022/03/05 08:30:20;;;;;;;22.98;12.65;;;;;;;;;;4933494;29;20056;-67
2022/03/05 08:33:01;;;;;;;23.30;13.60;;;;;;;;;;4930203;29;20051;-67
2022/03/05 08:35:49;;;;;;;25.50;12.90;;;;;;;;;;4944568;28;20102;-66
2022/03/05 08:38:31;;;;;;;21.38;12.27;;;;;;;;;;4945563;29;20047;-67
2022/03/05 08:41:24;;;;;;;21.73;11.70;;;;;;;;;;4940252;28;20054;-69
2022/03/05 08:44:18;;;;;;;22.95;12.52;;;;;;;;;;4936981;29;20562;-74
2022/03/05 08:47:02;;;;;;;25.42;12.55;;;;;;;;;;4941216;29;20051;-74
2022/03/05 08:49:41;;;;;;;18.60;11.93;;;;;;;;;;4936593;28;20055;-73
2022/03/05 08:52:16;;;;;;;20.17;11.32;;;;;;;;;;4939945;29;20078;-73
2022/03/05 08:54:58;;;;;;;23.83;12.73;;;;;;;;;;4940801;29;20510;-68
2022/03/05 08:57:33;;;;;;;25.27;12.35;;;;;;;;;;4944867;28;20047;-65
2022/03/05 09:00:14;;;;;;;19.80;10.88;;;;;;;;;;4943483;28;20047;-73
2022/03/05 09:02:46;;;;;;;19.45;11.02;;;;;;;;;;4938967;29;20051;-71
2022/03/05 09:05:23;;;;;;;20.40;10.70;;;;;;;;;;4937397;29;20051;-66
2022/03/05 09:08:01;;;;;;;20.80;12.23;;;;;;;;;;4942442;28;20130;-66
2022/03/05 09:10:29;;;;;;;21.35;11.88;;;;;;;;;;4938622;29;20051;-65
2022/03/05 09:13:00;;;;;;;20.38;10.82;;;;;;;;;;4937573;28;20086;-66
2022/03/05 09:15:36;;;;;;;19.80;11.77;;;;;;;;;;4941607;29;20044;-68
2022/03/05 09:18:09;;;;;;;20.50;11.25;;;;;;;;;;4941637;29;20051;-68
2022/03/05 09:20:46;;;;;;;19.15;11.77;;;;;;;;;;4937750;28;20051;-67
2022/03/05 09:23:18;;;;;;;21.05;11.98;;;;;;;;;;4939253;29;20058;-68
2022/03/05 09:25:54;;;;;;;18.90;11.00;;;;;;;;;;4939420;29;20055;-67
2022/03/05 09:28:26;;;;;;;20.73;11.50;;;;;;;;;;4941471;28;20055;-68
2022/03/05 09:30:55;;;;;;;20.95;11.63;;;;;;;;;;4939498;28;20052;-66
2022/03/05 09:33:26;;;;;;;18.52;11.02;;;;;;;;;;4937288;29;20051;-66
2022/03/05 09:35:57;;;;;;;22.95;11.77;;;;;;;;;;4941663;29;20457;-68
2022/03/05 09:38:31;;;;;;;18.73;10.80;;;;;;;;;;4940464;29;20478;-69
2022/03/05 09:41:02;;;;;;;20.95;10.93;;;;;;;;;;4944282;28;20043;-67
2022/03/05 09:43:35;;;;;;;20.77;11.40;;;;;;;;;;4940868;29;20130;-69
2022/03/05 09:46:15;;;;;;;17.10;10.55;;;;;;;;;;4946255;29;20051;-68
2022/03/05 09:48:53;;;;;;;19.48;11.23;;;;;;;;;;4942901;29;20048;-69
2022/03/05 09:51:27;;;;;;;18.48;10.73;;;;;;;;;;4943494;28;20486;-67
2022/03/05 09:54:04;;;;;;;18.00;10.20;;;;;;;;;;4942486;29;20052;-68
2022/03/05 09:56:31;;;;;;;;;;;;;;;;;;4941882;28;20048;-68
2022/03/05 09:58:59;;;;;;;16.42;9.25;;;;;;;;;;4941993;29;19926;-68
2022/03/05 10:01:30;;;;;;;15.10;8.57;;;;;;;;;;4947520;28;20090;-67
2022/03/05 10:04:03;;;;;;;15.68;9.23;;;;;;;;;;4950246;28;20059;-68
2022/03/05 10:06:38;;;;;;;16.27;9.10;;;;;;;;;;4944692;29;20059;-70
2022/03/05 10:09:20;;;;;;;15.63;9.40;;;;;;;;;;4940433;29;20051;-67
2022/03/05 10:11:52;;;;;;;14.52;9.15;;;;;;;;;;4944085;28;20503;-67
2022/03/05 10:14:29;;;;;;;14.18;9.23;;;;;;;;;;4943382;29;20059;-68
2022/03/05 10:17:01;;;;;;;13.52;8.65;;;;;;;;;;4948132;28;20457;-68
2022/03/05 10:19:35;;;;;;;14.10;8.68;;;;;;;;;;4942862;29;20138;-68
2022/03/05 10:22:30;;;;;;;14.07;8.73;;;;;;;;;;4941483;28;20047;-67
2022/03/05 10:25:07;;;;;;;13.35;8.38;;;;;;;;;;4942399;28;20052;-67
2022/03/05 10:27:44;;;;;;;12.90;8.02;;;;;;;;;;4942634;29;20180;-67
2022/03/05 10:30:41;;;;;;;11.00;6.40;;;;;;;;;;4949898;29;20088;-67
2022/03/05 10:33:29;;;;;;;15.23;7.53;;;;;;;;;;4947355;29;20059;-66
2022/03/05 10:36:07;;;;;;;15.23;9.00;;;;;;;;;;4946206;29;20051;-66
2022/03/05 10:38:50;;;;;;;12.35;7.60;;;;;;;;;;4944571;29;20069;-66
2022/03/05 10:41:38;;;;;;;12.32;8.32;;;;;;;;;;4944015;28;20470;-67
2022/03/05 10:44:22;;;;;;;12.82;7.53;;;;;;;;;;4947090;28;20411;-68
2022/03/05 10:47:01;;;;;;;12.52;6.95;;;;;;;;;;4939797;29;20047;-69
2022/03/05 10:49:39;;;;;;;13.80;8.05;;;;;;;;;;4943557;29;20490;-69
2022/03/05 10:52:08;;;;;;;12.20;7.45;;;;;;;;;;4944419;28;20048;-66
2022/03/05 10:54:43;;;;;;;10.35;6.70;;;;;;;;;;4944406;28;20466;-68
2022/03/05 10:57:19;;;;;;;13.35;7.63;;;;;;;;;;4942266;28;20487;-70
2022/03/05 10:59:53;;;;;;;9.98;6.38;;;;;;;;;;4941822;28;20566;-68
2022/03/05 11:02:22;;;;;;;11.77;7.57;;;;;;;;;;4908291;28;20055;-68
2022/03/05 11:04:56;;;;;;;13.80;8.15;;;;;;;;;;4926198;29;20522;-68
2022/03/05 11:07:34;;;;;;;11.98;8.25;;;;;;;;;;4921400;29;20051;-70
2022/03/05 11:10:06;;;;;;;14.82;8.02;;;;;;;;;;4918964;29;20051;-66
2022/03/05 11:12:34;;;;;;;11.73;7.28;;;;;;;;;;4923461;29;20074;-66
2022/03/05 11:15:05;;;;;;;13.27;8.07;;;;;;;;;;4905069;29;20537;-67
2022/03/05 11:17:41;;;;;;;12.65;7.65;;;;;;;;;;4906497;29;20571;-67
2022/03/05 11:20:14;;;;;;;13.27;8.13;;;;;;;;;;4939904;29;20088;-67
2022/03/05 11:22:46;;;;;;;14.38;7.65;;;;;;;;;;4921939;29;20059;-66
2022/03/05 11:25:15;;;;;;;11.82;6.95;;;;;;;;;;4927296;29;20051;-66
2022/03/05 11:27:59;;;;;;;10.38;7.03;;;;;;;;;;4936120;29;20055;-67
2022/03/05 11:30:39;;;;;;;10.82;6.38;;;;;;;;;;4920048;29;20463;-66
2022/03/05 11:33:19;;;;;;;11.90;6.65;;;;;;;;;;4921676;29;20455;-66
2022/03/05 11:35:48;;;;;;;12.02;7.93;;;;;;;;;;4924016;29;20079;-66
2022/03/05 11:38:42;;;;;;;11.88;7.07;;;;;;;;;;4920712;29;20048;-67
2022/03/05 11:41:25;;;;;;;15.13;8.23;;;;;;;;;;4920811;29;20052;-66
2022/03/05 11:43:53;;;;;;;12.73;7.82;;;;;;;;;;4919642;29;20117;-67
2022/03/05 11:46:28;;;;;;;12.40;7.18;;;;;;;;;;4938757;29;20431;-68
2022/03/05 11:49:06;;;;;;;10.05;6.25;;;;;;;;;;4921017;29;20060;-68
2022/03/05 11:52:08;;;;;;;12.48;6.90;;;;;;;;;;4919992;29;20059;-67
2022/03/05 11:55:02;;;;;;;11.35;6.70;;;;;;;;;;4923262;29;20060;-67
2022/03/05 11:57:45;;;;;;;11.63;6.70;;;;;;;;;;4926832;29;20059;-67
2022/03/05 12:00:29;;;;;;;11.48;7.65;;;;;;;;;;4933098;29;20292;-66
2022/03/05 12:03:16;;;;;;;15.32;7.57;;;;;;;;;;4925416;29;20067;-66
2022/03/05 12:05:46;;;;;;;;;;;;;;;;;;4921250;29;20058;-67
2022/03/05 12:08:35;;;;;;;11.35;7.03;;;;;;;;;;4919562;29;19979;-68
2022/03/05 12:11:26;;;;;;;13.73;7.60;;;;;;;;;;4920744;29;20067;-67
2022/03/05 12:14:07;;;;;;;9.90;6.50;;;;;;;;;;4920633;29;20063;-67
2022/03/05 12:16:44;;;;;;;8.43;5.80;;;;;;;;;;4922647;29;20059;-67
2022/03/05 12:19:22;;;;;;;8.63;5.93;;;;;;;;;;4920484;29;20044;-70
2022/03/05 12:21:59;;;;;;;9.20;6.18;;;;;;;;;;4918516;29;20059;-67
2022/03/05 12:24:35;;;;;;;11.38;5.95;;;;;;;;;;4919099;29;20059;-68
2022/03/05 12:27:09;;;;;;;9.27;5.55;;;;;;;;;;4923452;29;20051;-67
2022/03/05 12:29:57;;;;;;;10.50;5.20;;;;;;;;;;4926441;29;20091;-68
2022/03/05 12:32:31;;;;;;;8.85;5.68;;;;;;;;;;4919142;29;20052;-68
2022/03/05 12:35:06;;;;;;;10.05;5.10;;;;;;;;;;4921855;29;20048;-67
2022/03/05 12:37:35;;;;;;;7.60;5.03;;;;;;;;;;4922280;29;20338;-66
2022/03/05 12:40:04;;;;;;;9.30;5.28;;;;;;;;;;4922195;29;20308;-66
2022/03/05 12:42:46;;;;;;;8.48;5.75;;;;;;;;;;4922429;29;20507;-66
2022/03/05 12:45:18;;;;;;;8.65;4.68;;;;;;;;;;4925359;29;20618;-65
2022/03/05 12:47:45;;;;;;;7.35;5.30;;;;;;;;;;4921381;29;20044;-67
2022/03/05 12:50:20;;;;;;;8.40;5.38;;;;;;;;;;4922932;29;20099;-66
2022/03/05 12:52:53;;;;;;;9.10;5.70;;;;;;;;;;4921426;29;20048;-67
2022/03/05 12:55:20;;;;;;;8.98;5.55;;;;;;;;;;4924431;29;20099;-66
2022/03/05 12:57:47;;;;;;;8.95;5.90;;;;;;;;;;4928662;29;20040;-68
2022/03/05 13:00:18;;;;;;;7.18;5.65;;;;;;;;;;4929160;29;20142;-68
2022/03/05 13:02:45;;;;;;;8.48;6.35;;;;;;;;;;4923354;29;20123;-67
2022/03/05 13:05:15;;;;;;;10.70;5.93;;;;;;;;;;4922792;29;20095;-67
2022/03/05 13:07:42;;;;;;;11.48;6.03;;;;;;;;;;4922812;29;20044;-67
2022/03/05 13:10:09;;;;;;;8.32;5.93;;;;;;;;;;4920786;29;20059;-67
2022/03/05 13:12:39;;;;;;;7.63;5.72;;;;;;;;;;4922904;29;20058;-67
2022/03/05 13:15:07;;;;;;;9.38;6.85;;;;;;;;;;4922119;29;20051;-66
2022/03/05 13:17:34;;;;;;;9.77;6.28;;;;;;;;;;4924274;29;20542;-67
2022/03/05 13:20:02;;;;;;;9.15;6.22;;;;;;;;;;4922463;29;20071;-66
2022/03/05 13:22:29;;;;;;;9.52;6.80;;;;;;;;;;4920278;29;20059;-67
2022/03/05 13:24:56;;;;;;;12.07;6.50;;;;;;;;;;4942520;29;20099;-67
2022/03/05 13:27:24;;;;;;;10.10;6.38;;;;;;;;;;4920717;29;20052;-67
2022/03/05 13:29:52;;;;;;;9.82;6.75;;;;;;;;;;4921722;29;20403;-66
2022/03/05 13:32:19;;;;;;;8.90;6.13;;;;;;;;;;4927200;29;20103;-67
2022/03/05 13:34:45;;;;;;;10.07;6.18;;;;;;;;;;4920966;29;20056;-67
2022/03/05 13:37:15;;;;;;;10.00;6.47;;;;;;;;;;4919806;29;20044;-67
2022/03/05 13:39:41;;;;;;;8.90;6.00;;;;;;;;;;4931031;28;20121;-68
2022/03/05 13:42:14;;;;;;;10.48;6.15;;;;;;;;;;4937869;29;20095;-66
2022/03/05 13:44:41;;;;;;;10.55;5.70;;;;;;;;;;4941146;28;20051;-67
2022/03/05 13:47:09;;;;;;;7.53;5.57;;;;;;;;;;4942147;29;20056;-67
2022/03/05 13:49:37;;;;;;;12.50;8.77;;;;;;;;;;4936467;29;20106;-66
2022/03/05 13:52:06;;;;;;;8.20;5.82;;;;;;;;;;4943230;28;20055;-68
2022/03/05 13:54:39;;;;;;;7.78;6.22;;;;;;;;;;4938406;29;20489;-66
2022/03/05 13:57:08;;;;;;;9.60;6.25;;;;;;;;;;4947126;28;20047;-67
2022/03/05 13:59:37;;;;;;;9.93;6.20;;;;;;;;;;4941943;29;20403;-67
2022/03/05 14:02:04;;;;;;;8.27;6.57;;;;;;;;;;4941146;28;20138;-67
2022/03/05 14:04:31;;;;;;;8.10;5.90;;;;;;;;;;4941487;29;20059;-66
2022/03/05 14:07:03;;;;;;;12.07;7.85;;;;;;;;;;4937454;28;20830;-67
2022/03/05 14:09:38;;;;;;;9.00;6.45;;;;;;;;;;4939228;29;20143;-68
2022/03/05 14:12:05;;;;;;;9.07;6.10;;;;;;;;;;4937415;29;20428;-68
2022/03/05 14:14:41;;;;;;;7.72;5.60;;;;;;;;;;4939205;28;20051;-66
2022/03/05 14:17:09;;;;;;;9.93;5.75;;;;;;;;;;4941465;29;20466;-66
2022/03/05 14:19:35;;;;;;;8.55;5.88;;;;;;;;;;4939476;29;20118;-66
2022/03/05 14:22:11;;;;;;;8.93;5.32;;;;;;;;;;4937931;28;20067;-66
2022/03/05 14:24:39;;;;;;;8.73;6.00;;;;;;;;;;4937619;29;20061;-66
2022/03/05 14:27:14;;;;;;;9.70;6.00;;;;;;;;;;4941077;28;20165;-66
2022/03/05 14:29:42;;;;;;;9.40;6.10;;;;;;;;;;4939770;28;20055;-66
2022/03/05 14:32:10;;;;;;;8.27;5.38;;;;;;;;;;4937190;29;20107;-66
2022/03/05 14:34:38;;;;;;;7.95;5.40;;;;;;;;;;4941425;29;20263;-66
2022/03/05 14:37:05;;;;;;;8.63;5.80;;;;;;;;;;4937320;29;20043;-67
2022/03/05 14:39:32;;;;;;;9.80;5.28;;;;;;;;;;4938643;29;20494;-73
2022/03/05 14:42:00;;;;;;;9.50;5.50;;;;;;;;;;4939613;29;20094;-66
2022/03/05 14:44:27;;;;;;;8.15;5.45;;;;;;;;;;4938803;29;20481;-66
2022/03/05 14:46:53;;;;;;;7.65;5.90;;;;;;;;;;4942571;28;20051;-68
2022/03/05 14:49:21;;;;;;;7.95;5.15;;;;;;;;;;4948716;29;20095;-67
2022/03/05 14:51:49;;;;;;;8.05;5.50;;;;;;;;;;4943834;28;20057;-67